createdAt,value
2019-02-24T00:00:49.485Z,60.25
2019-02-24T00:01:49.484Z,60.04
2019-02-24T00:02:49.471Z,59.73
2019-02-24T00:03:49.458Z,59.52
2019-02-24T00:04:49.454Z,59.52
2019-02-24T00:05:49.463Z,59.73
2019-02-24T00:06:51.994Z,59.63
2019-02-24T00:07:49.409Z,60.25
2019-02-24T00:08:49.398Z,60.87
2019-02-24T00:09:49.390Z,61.69
2019-02-24T00:10:49.413Z,61.38
2019-02-24T00:11:49.392Z,61.62
2019-02-24T00:12:49.353Z,61.62
2019-02-24T00:13:49.359Z,61.62
2019-02-24T00:14:49.334Z,62.55
2019-02-24T00:15:49.321Z,62.35
2019-02-24T00:16:50.025Z,62.37
2019-02-24T00:17:49.304Z,62.48
2019-02-24T00:18:49.288Z,62.27
2019-02-24T00:19:49.276Z,62.58
2019-02-24T00:20:49.305Z,62.79
2019-02-24T00:21:49.262Z,62.48
2019-02-24T00:22:49.409Z,62.71
2019-02-24T00:23:49.226Z,62.71
2019-02-24T00:24:49.219Z,62.82
2019-02-24T00:25:49.213Z,63.54
2019-02-24T00:26:49.238Z,65.03
2019-02-24T00:27:49.200Z,63.99
2019-02-24T00:28:49.181Z,63.89
2019-02-24T00:29:49.237Z,64.09
2019-02-24T00:30:49.150Z,64.27
2019-02-24T00:31:49.205Z,64.20
2019-02-24T00:32:49.158Z,64.27
2019-02-24T00:33:49.150Z,64.48
2019-02-24T00:34:49.126Z,63.99
2019-02-24T00:35:49.142Z,64.17
2019-02-24T00:36:49.155Z,64.72
2019-02-24T00:37:49.075Z,64.30
2019-02-24T00:38:49.080Z,64.79
2019-02-24T00:39:49.045Z,64.09
2019-02-24T00:40:49.077Z,64.48
2019-02-24T00:41:49.096Z,64.72
2019-02-24T00:42:49.006Z,65.03
2019-02-24T00:43:49.031Z,65.62
2019-02-24T00:44:49.043Z,65.83
2019-02-24T00:45:48.997Z,64.92
2019-02-24T00:46:49.079Z,64.61
2019-02-24T00:47:48.997Z,65.03
2019-02-24T00:48:48.972Z,63.89
2019-02-24T00:49:48.957Z,64.75
2019-02-24T00:50:48.934Z,65.55
2019-02-24T00:51:48.954Z,65.65
2019-02-24T00:52:48.904Z,65.65
2019-02-24T00:53:48.950Z,65.68
2019-02-24T00:54:48.882Z,65.78
2019-02-24T00:55:48.919Z,66.30
2019-02-24T00:56:48.912Z,66.09
2019-02-24T00:57:49.030Z,66.51
2019-02-24T00:58:48.887Z,66.61
2019-02-24T00:59:48.871Z,66.41
2019-02-24T01:00:48.860Z,65.89
2019-02-24T01:01:48.824Z,66.30
2019-02-24T01:02:48.944Z,66.51
2019-02-24T01:03:48.826Z,66.51
2019-02-24T01:04:48.816Z,66.09
2019-02-24T01:05:49.515Z,66.30
2019-02-24T01:06:48.769Z,66.61
2019-02-24T01:07:48.768Z,66.09
2019-02-24T01:08:48.805Z,66.09
2019-02-24T01:09:48.770Z,66.09
2019-02-24T01:10:48.747Z,66.61
2019-02-24T01:11:48.708Z,66.51
2019-02-24T01:12:48.694Z,66.12
2019-02-24T01:13:48.699Z,66.12
2019-02-24T01:14:48.702Z,66.12
2019-02-24T01:15:48.661Z,66.02
2019-02-24T01:16:49.391Z,66.64
2019-02-24T01:17:48.657Z,66.12
2019-02-24T01:18:48.867Z,66.33
2019-02-24T01:19:48.635Z,66.12
2019-02-24T01:20:48.613Z,65.50
2019-02-24T01:21:48.604Z,65.70
2019-02-24T01:22:48.644Z,65.39
2019-02-24T01:23:48.601Z,65.70
2019-02-24T01:24:48.644Z,65.60
2019-02-24T01:25:48.565Z,66.22
2019-02-24T01:26:51.449Z,66.12
2019-02-24T01:27:48.538Z,65.91
2019-02-24T01:28:48.527Z,66.67
2019-02-24T01:29:48.516Z,66.47
2019-02-24T01:30:48.558Z,66.75
2019-02-24T01:31:48.501Z,66.88
2019-02-24T01:32:48.468Z,66.57
2019-02-24T01:33:48.484Z,66.78
2019-02-24T01:34:48.482Z,66.81
2019-02-24T01:35:48.516Z,66.81
2019-02-24T01:36:48.456Z,66.91
2019-02-24T01:37:48.436Z,67.40
2019-02-24T01:38:48.453Z,67.64
2019-02-24T01:39:48.427Z,68.05
2019-02-24T01:40:48.409Z,67.95
2019-02-24T01:41:48.375Z,68.16
2019-02-24T01:42:48.389Z,67.85
2019-02-24T01:43:48.423Z,68.16
2019-02-24T01:44:48.368Z,68.26
2019-02-24T01:45:48.350Z,68.16
2019-02-24T01:46:48.343Z,68.05
2019-02-24T01:47:48.332Z,67.02
2019-02-24T01:48:48.431Z,66.81
2019-02-24T01:49:48.379Z,67.02
2019-02-24T01:50:48.296Z,66.81
2019-02-24T01:51:48.282Z,67.02
2019-02-24T01:52:48.315Z,67.54
2019-02-24T01:53:48.285Z,67.95
2019-02-24T01:54:48.273Z,68.50
2019-02-24T01:55:48.233Z,68.50
2019-02-24T01:56:48.208Z,68.71
2019-02-24T01:57:48.201Z,68.99
2019-02-24T01:58:48.218Z,69.12
2019-02-24T01:59:48.244Z,69.23
2019-02-24T02:00:48.212Z,69.02
2019-02-24T02:01:48.198Z,68.71
2019-02-24T02:02:48.173Z,68.19
2019-02-24T02:03:48.192Z,68.08
2019-02-24T02:04:48.930Z,68.16
2019-02-24T02:05:48.139Z,67.85
2019-02-24T02:06:48.122Z,68.19
2019-02-24T02:07:48.112Z,68.08
2019-02-24T02:08:48.105Z,68.50
2019-02-24T02:09:48.129Z,68.71
2019-02-24T02:10:48.104Z,68.81
2019-02-24T02:11:48.074Z,69.37
2019-02-24T02:12:48.067Z,69.37
2019-02-24T02:13:48.052Z,68.60
2019-02-24T02:14:48.096Z,68.29
2019-02-24T02:15:48.009Z,68.19
2019-02-24T02:16:48.056Z,67.46
2019-02-24T02:17:48.041Z,67.02
2019-02-24T02:18:48.096Z,66.71
2019-02-24T02:19:48.034Z,66.81
2019-02-24T02:20:48.059Z,67.02
2019-02-24T02:21:47.976Z,66.91
2019-02-24T02:22:47.983Z,67.15
2019-02-24T02:23:47.968Z,67.02
2019-02-24T02:24:47.945Z,67.15
2019-02-24T02:25:50.415Z,67.54
2019-02-24T02:26:47.913Z,67.54
2019-02-24T02:27:47.907Z,68.05
2019-02-24T02:28:47.916Z,68.19
2019-02-24T02:29:47.949Z,68.19
2019-02-24T02:30:47.870Z,68.08
2019-02-24T02:31:47.860Z,68.29
2019-02-24T02:32:47.868Z,68.08
2019-02-24T02:33:47.834Z,68.47
2019-02-24T02:34:47.831Z,68.71
2019-02-24T02:35:47.894Z,68.71
2019-02-24T02:36:47.858Z,68.60
2019-02-24T02:37:47.841Z,68.50
2019-02-24T02:38:47.813Z,69.33
2019-02-24T02:39:47.845Z,69.33
2019-02-24T02:40:47.781Z,69.37
2019-02-24T02:41:47.795Z,69.89
2019-02-24T02:42:47.763Z,69.89
2019-02-24T02:43:47.754Z,69.99
2019-02-24T02:44:47.749Z,70.20
2019-02-24T02:45:47.815Z,70.12
2019-02-24T02:46:47.713Z,70.20
2019-02-24T02:47:47.703Z,69.99
2019-02-24T02:48:47.731Z,70.09
2019-02-24T02:49:47.658Z,69.89
2019-02-24T02:50:47.646Z,68.95
2019-02-24T02:51:47.628Z,69.26
2019-02-24T02:52:47.652Z,68.95
2019-02-24T02:53:47.647Z,69.57
2019-02-24T02:54:47.600Z,69.15
2019-02-24T02:55:47.627Z,69.26
2019-02-24T02:56:47.583Z,70.12
2019-02-24T02:57:47.572Z,69.89
2019-02-24T02:58:53.975Z,70.23
2019-02-24T02:59:48.552Z,70.43
2019-02-24T03:00:47.569Z,71.09
2019-02-24T03:01:47.536Z,70.85
2019-02-24T03:02:47.514Z,71.09
2019-02-24T03:03:47.523Z,70.89
2019-02-24T03:04:47.488Z,70.95
2019-02-24T03:05:47.509Z,70.89
2019-02-24T03:06:47.474Z,70.26
2019-02-24T03:07:47.468Z,70.12
2019-02-24T03:08:47.450Z,69.71
2019-02-24T03:09:47.437Z,70.02
2019-02-24T03:10:47.468Z,70.02
2019-02-24T03:11:47.420Z,69.50
2019-02-24T03:12:47.411Z,69.60
2019-02-24T03:13:47.401Z,68.88
2019-02-24T03:14:47.401Z,68.98
2019-02-24T03:15:47.372Z,69.15
2019-02-24T03:16:47.394Z,69.60
2019-02-24T03:17:47.364Z,69.40
2019-02-24T03:18:47.345Z,69.50
2019-02-24T03:19:47.348Z,69.15
2019-02-24T03:20:47.350Z,69.57
2019-02-24T03:21:47.344Z,69.57
2019-02-24T03:22:47.295Z,69.29
2019-02-24T03:23:47.288Z,69.15
2019-02-24T03:24:47.992Z,69.71
2019-02-24T03:25:47.270Z,69.92
2019-02-24T03:26:47.324Z,69.71
2019-02-24T03:27:47.250Z,69.92
2019-02-24T03:28:47.241Z,70.33
2019-02-24T03:29:47.228Z,70.33
2019-02-24T03:30:47.197Z,70.23
2019-02-24T03:31:47.245Z,69.60
2019-02-24T03:32:47.255Z,69.60
2019-02-24T03:33:47.195Z,69.71
2019-02-24T03:36:03.436Z,69.92
2019-02-24T03:37:03.424Z,70.12
2019-02-24T03:38:03.436Z,70.02
2019-02-24T03:39:03.411Z,69.71
2019-02-24T03:40:03.420Z,70.23
2019-02-24T03:41:03.387Z,70.02
2019-02-24T03:42:03.369Z,69.50
2019-02-24T03:43:03.397Z,69.60
2019-02-24T03:44:03.349Z,69.19
2019-02-24T03:45:03.365Z,69.19
2019-02-24T03:46:03.328Z,69.68
2019-02-24T03:47:03.314Z,69.71
2019-02-24T03:48:03.327Z,69.92
2019-02-24T03:49:03.291Z,69.60
2019-02-24T03:50:03.290Z,70.12
2019-02-24T03:51:03.270Z,70.54
2019-02-24T03:52:03.266Z,70.85
2019-02-24T03:53:03.297Z,70.89
2019-02-24T03:54:03.241Z,70.47
2019-02-24T03:55:03.232Z,70.99
2019-02-24T03:56:03.227Z,70.89
2019-02-24T03:57:03.211Z,70.99
2019-02-24T03:58:03.238Z,71.30
2019-02-24T03:59:03.183Z,71.61
2019-02-24T04:00:03.174Z,71.41
2019-02-24T04:01:03.178Z,71.61
2019-02-24T04:02:03.155Z,71.82
2019-02-24T04:03:03.176Z,72.24
2019-02-24T04:04:03.132Z,71.96
2019-02-24T04:05:03.115Z,71.75
2019-02-24T04:06:03.118Z,71.44
2019-02-24T04:07:03.093Z,70.99
2019-02-24T04:08:03.111Z,71.09
2019-02-24T04:09:03.111Z,71.09
2019-02-24T04:10:03.070Z,70.89
2019-02-24T04:11:03.055Z,70.47
2019-02-24T04:12:03.046Z,70.47
2019-02-24T04:13:03.036Z,70.57
2019-02-24T04:14:03.022Z,70.89
2019-02-24T04:15:03.049Z,70.23
2019-02-24T04:16:03.001Z,70.89
2019-02-24T04:17:02.992Z,70.99
2019-02-24T04:18:02.975Z,70.89
2019-02-24T04:19:02.971Z,71.09
2019-02-24T04:20:02.964Z,70.89
2019-02-24T04:21:02.990Z,70.78
2019-02-24T04:22:02.931Z,71.09
2019-02-24T04:23:02.922Z,70.89
2019-02-24T04:24:02.943Z,70.36
2019-02-24T04:25:02.907Z,70.47
2019-02-24T04:26:02.896Z,70.89
2019-02-24T04:27:02.886Z,70.26
2019-02-24T04:28:02.870Z,70.40
2019-02-24T04:29:02.875Z,71.02
2019-02-24T04:30:02.843Z,71.23
2019-02-24T04:31:02.836Z,71.33
2019-02-24T04:32:02.820Z,71.47
2019-02-24T04:33:02.823Z,72.20
2019-02-24T04:34:02.822Z,71.99
2019-02-24T04:35:02.796Z,72.20
2019-02-24T04:36:02.775Z,71.99
2019-02-24T04:37:02.773Z,72.51
2019-02-24T04:38:02.755Z,71.89
2019-02-24T04:39:02.751Z,72.62
2019-02-24T04:40:02.767Z,72.86
2019-02-24T04:41:02.721Z,73.17
2019-02-24T04:42:02.716Z,72.89
2019-02-24T04:43:02.703Z,73.41
2019-02-24T04:44:02.696Z,73.52
2019-02-24T04:45:02.704Z,73.52
2019-02-24T04:46:02.673Z,73.83
2019-02-24T04:47:02.665Z,75.18
2019-02-24T04:48:02.650Z,74.98
2019-02-24T04:49:02.650Z,74.87
2019-02-24T04:50:02.633Z,75.40
2019-02-24T04:51:02.641Z,73.52
2019-02-24T04:52:02.600Z,73.83
2019-02-24T04:53:02.597Z,73.27
2019-02-24T04:54:02.583Z,73.49
2019-02-24T04:55:02.608Z,73.49
2019-02-24T04:56:02.558Z,73.49
2019-02-24T04:57:02.556Z,73.27
2019-02-24T04:58:02.553Z,72.65
2019-02-24T04:59:02.534Z,73.27
2019-02-24T05:00:02.552Z,72.93
2019-02-24T05:01:02.531Z,73.07
2019-02-24T05:02:02.494Z,72.51
2019-02-24T05:03:02.486Z,72.75
2019-02-24T05:04:02.473Z,73.03
2019-02-24T05:05:02.464Z,73.24
2019-02-24T05:06:02.485Z,73.03
2019-02-24T05:07:02.446Z,72.62
2019-02-24T05:08:02.428Z,72.34
2019-02-24T05:09:02.415Z,72.75
2019-02-24T05:10:02.410Z,73.17
2019-02-24T05:11:02.422Z,73.80
2019-02-24T05:12:02.387Z,73.52
2019-02-24T05:13:02.396Z,73.83
2019-02-24T05:14:02.364Z,72.96
2019-02-24T05:15:02.385Z,73.17
2019-02-24T05:16:02.347Z,73.59
2019-02-24T05:17:02.358Z,73.38
2019-02-24T05:18:02.316Z,73.49
2019-02-24T05:19:02.307Z,73.21
2019-02-24T05:20:02.304Z,73.00
2019-02-24T05:21:02.329Z,73.31
2019-02-24T05:22:02.274Z,74.25
2019-02-24T05:23:02.268Z,73.52
2019-02-24T05:24:02.255Z,73.83
2019-02-24T05:25:02.265Z,73.86
2019-02-24T05:26:02.237Z,73.72
2019-02-24T05:27:02.268Z,74.35
2019-02-24T05:28:02.212Z,74.15
2019-02-24T05:29:02.201Z,74.25
2019-02-24T05:30:02.188Z,75.08
2019-02-24T05:31:02.191Z,74.91
2019-02-24T05:32:02.180Z,75.22
2019-02-24T05:33:02.186Z,75.01
2019-02-24T05:34:02.153Z,74.87
2019-02-24T05:35:02.138Z,74.80
2019-02-24T05:36:02.125Z,74.49
2019-02-24T05:37:02.148Z,74.77
2019-02-24T05:38:02.112Z,74.80
2019-02-24T05:39:02.101Z,74.70
2019-02-24T05:40:02.086Z,74.46
2019-02-24T05:41:02.093Z,74.25
2019-02-24T05:42:02.085Z,74.77
2019-02-24T05:43:02.057Z,74.77
2019-02-24T05:44:02.041Z,75.08
2019-02-24T05:45:02.050Z,74.77
2019-02-24T05:46:02.016Z,74.38
2019-02-24T05:47:02.011Z,74.80
2019-02-24T05:48:02.028Z,75.12
2019-02-24T05:49:01.991Z,75.01
2019-02-24T05:50:01.982Z,74.91
2019-02-24T05:51:01.977Z,74.80
2019-02-24T05:52:01.954Z,75.32
2019-02-24T05:53:01.971Z,74.70
2019-02-24T05:54:01.931Z,74.91
2019-02-24T05:55:01.922Z,75.22
2019-02-24T05:56:01.918Z,74.18
2019-02-24T05:57:01.897Z,73.31
2019-02-24T05:58:01.912Z,73.72
2019-02-24T05:59:01.882Z,73.52
2019-02-24T06:00:01.873Z,74.35
2019-02-24T06:01:01.859Z,73.52
2019-02-24T06:02:01.847Z,73.62
2019-02-24T06:03:01.873Z,73.62
2019-02-24T06:04:01.836Z,73.62
2019-02-24T06:05:01.815Z,73.31
2019-02-24T06:06:01.822Z,73.41
2019-02-24T06:07:01.793Z,73.52
2019-02-24T06:08:01.785Z,73.21
2019-02-24T06:09:01.801Z,73.41
2019-02-24T06:10:01.775Z,73.59
2019-02-24T06:11:01.754Z,73.83
2019-02-24T06:12:01.747Z,73.83
2019-02-24T06:13:01.754Z,73.21
2019-02-24T06:14:01.754Z,73.21
2019-02-24T06:15:01.711Z,73.52
2019-02-24T06:16:01.723Z,73.52
2019-02-24T06:17:01.692Z,73.83
2019-02-24T06:18:01.676Z,73.72
2019-02-24T06:19:01.898Z,73.10
2019-02-24T06:20:01.682Z,73.07
2019-02-24T06:21:01.653Z,73.55
2019-02-24T06:22:01.637Z,73.24
2019-02-24T06:23:01.636Z,73.34
2019-02-24T06:24:01.616Z,73.86
2019-02-24T06:25:01.655Z,73.34
2019-02-24T06:26:01.607Z,73.69
2019-02-24T06:27:01.592Z,75.05
2019-02-24T06:28:01.575Z,74.63
2019-02-24T06:29:01.587Z,74.63
2019-02-24T06:30:05.022Z,74.63
2019-02-24T06:31:01.544Z,75.05
2019-02-24T06:32:01.544Z,74.84
2019-02-24T06:33:01.518Z,75.05
2019-02-24T06:34:01.530Z,74.42
2019-02-24T06:35:01.533Z,74.70
2019-02-24T06:36:01.492Z,73.86
2019-02-24T06:37:01.479Z,73.90
2019-02-24T06:38:01.468Z,75.26
2019-02-24T06:39:01.468Z,73.38
2019-02-24T06:40:01.446Z,73.86
2019-02-24T06:41:01.475Z,73.86
2019-02-24T06:42:01.421Z,73.86
2019-02-24T06:43:01.420Z,73.76
2019-02-24T06:44:01.404Z,73.66
2019-02-24T06:45:01.423Z,73.97
2019-02-24T06:46:01.377Z,73.76
2019-02-24T06:47:01.370Z,74.07
2019-02-24T06:48:01.395Z,75.01
2019-02-24T06:49:01.344Z,74.38
2019-02-24T06:50:01.357Z,74.52
2019-02-24T06:51:01.324Z,75.15
2019-02-24T06:52:01.317Z,75.05
2019-02-24T06:53:01.338Z,75.57
2019-02-24T06:54:01.292Z,75.36
2019-02-24T06:55:01.321Z,76.51
2019-02-24T06:56:01.272Z,76.61
2019-02-24T06:57:01.290Z,76.65
2019-02-24T06:58:01.256Z,76.72
2019-02-24T06:59:01.256Z,76.51
2019-02-24T07:00:01.278Z,76.61
2019-02-24T07:01:01.222Z,76.40
2019-02-24T07:02:01.240Z,76.57
2019-02-24T07:03:01.203Z,76.61
2019-02-24T07:04:01.194Z,76.57
2019-02-24T07:05:01.182Z,76.47
2019-02-24T07:06:01.192Z,76.47
2019-02-24T07:07:01.156Z,76.57
2019-02-24T07:08:01.185Z,76.68
2019-02-24T07:09:01.295Z,76.89
2019-02-24T07:10:01.407Z,76.54
2019-02-24T07:11:01.116Z,76.86
2019-02-24T07:12:01.101Z,76.89
2019-02-24T07:13:01.087Z,76.65
2019-02-24T07:14:01.084Z,76.54
2019-02-24T07:15:01.075Z,75.50
2019-02-24T07:16:01.080Z,75.57
2019-02-24T07:17:01.048Z,75.36
2019-02-24T07:18:01.033Z,75.46
2019-02-24T07:19:01.020Z,74.95
2019-02-24T07:20:01.013Z,74.95
2019-02-24T07:21:01.028Z,74.95
2019-02-24T07:22:00.990Z,74.80
2019-02-24T07:23:00.985Z,75.12
2019-02-24T07:24:00.968Z,73.55
2019-02-24T07:25:00.968Z,73.14
2019-02-24T07:26:00.960Z,73.03
2019-02-24T07:27:00.959Z,72.89
2019-02-24T07:28:00.930Z,72.06
2019-02-24T07:29:00.913Z,72.06
2019-02-24T07:30:00.901Z,71.51
2019-02-24T07:31:00.914Z,71.61
2019-02-24T07:32:00.882Z,71.51
2019-02-24T07:33:00.879Z,71.41
2019-02-24T07:34:00.863Z,70.99
2019-02-24T07:35:00.846Z,71.51
2019-02-24T07:36:00.865Z,71.58
2019-02-24T07:37:00.827Z,71.17
2019-02-24T07:38:00.818Z,71.09
2019-02-24T07:39:00.804Z,71.48
2019-02-24T07:40:00.824Z,71.37
2019-02-24T07:41:00.785Z,71.37
2019-02-24T07:42:00.793Z,71.48
2019-02-24T07:43:00.764Z,70.75
2019-02-24T07:44:00.755Z,70.02
2019-02-24T07:45:00.747Z,69.89
2019-02-24T07:46:00.737Z,69.81
2019-02-24T07:47:00.742Z,69.26
2019-02-24T07:48:00.714Z,68.84
2019-02-24T07:49:00.706Z,68.95
2019-02-24T07:50:00.694Z,69.23
2019-02-24T07:51:00.684Z,68.81
2019-02-24T07:52:00.692Z,68.71
2019-02-24T07:53:00.662Z,68.19
2019-02-24T07:54:00.642Z,68.71
2019-02-24T07:55:00.642Z,68.50
2019-02-24T07:56:00.626Z,68.57
2019-02-24T07:57:00.643Z,68.57
2019-02-24T07:58:00.598Z,68.68
2019-02-24T07:59:00.617Z,68.37
2019-02-24T08:00:00.598Z,68.13
2019-02-24T08:01:00.566Z,68.02
2019-02-24T08:02:00.838Z,68.02
2019-02-24T08:03:00.544Z,68.65
2019-02-24T08:04:00.542Z,68.75
2019-02-24T08:05:00.534Z,68.51
2019-02-24T08:06:00.517Z,68.51
2019-02-24T08:07:00.505Z,68.51
2019-02-24T08:08:02.459Z,69.21
2019-02-24T08:09:00.484Z,69.21
2019-02-24T08:10:00.497Z,69.00
2019-02-24T08:11:00.487Z,68.69
2019-02-24T08:12:00.452Z,68.44
2019-02-24T08:13:00.462Z,68.55
2019-02-24T08:14:00.443Z,68.44
2019-02-24T08:15:00.416Z,69.17
2019-02-24T08:16:00.457Z,68.96
2019-02-24T08:17:00.396Z,69.17
2019-02-24T08:18:00.412Z,68.62
2019-02-24T08:19:00.375Z,68.31
2019-02-24T08:20:00.363Z,68.62
2019-02-24T08:21:00.419Z,68.49
2019-02-24T08:22:00.340Z,68.18
2019-02-24T08:23:00.344Z,68.70
2019-02-24T08:24:00.342Z,68.38
2019-02-24T08:25:00.308Z,68.28
2019-02-24T08:26:00.326Z,67.76
2019-02-24T08:27:00.287Z,67.00
2019-02-24T08:28:00.298Z,66.80
2019-02-24T08:29:00.266Z,66.49
2019-02-24T08:30:02.526Z,65.97
2019-02-24T08:31:00.244Z,64.94
2019-02-24T08:32:00.229Z,64.11
2019-02-24T08:33:00.250Z,64.11
2019-02-24T08:34:00.385Z,63.35
2019-02-24T08:35:00.319Z,63.46
2019-02-24T08:36:00.188Z,63.25
2019-02-24T08:37:00.191Z,62.21
2019-02-24T08:38:00.166Z,61.28
2019-02-24T08:39:00.191Z,60.66
2019-02-24T08:40:00.240Z,60.01
2019-02-24T08:41:00.139Z,59.50
2019-02-24T08:42:00.125Z,58.67
2019-02-24T08:43:00.118Z,58.67
2019-02-24T08:44:00.142Z,58.15
2019-02-24T08:45:00.269Z,57.94
2019-02-24T08:46:00.081Z,57.40
2019-02-24T08:47:00.069Z,57.81
2019-02-24T08:48:00.060Z,58.12
2019-02-24T08:49:00.055Z,56.68
2019-02-24T08:50:00.101Z,56.98
2019-02-24T08:51:00.024Z,56.75
2019-02-24T08:52:00.013Z,55.82
2019-02-24T08:53:00.008Z,56.44
2019-02-24T08:53:59.999Z,54.99
2019-02-24T08:55:00.020Z,55.82
2019-02-24T08:55:59.974Z,55.20
2019-02-24T08:56:59.961Z,54.99
2019-02-24T08:57:59.971Z,54.48
2019-02-24T08:58:59.954Z,54.48
2019-02-24T08:59:59.962Z,53.96
2019-02-24T09:00:59.918Z,52.49
2019-02-24T09:01:59.904Z,51.45
2019-02-24T09:02:59.901Z,51.97
2019-02-24T09:03:59.884Z,50.63
2019-02-24T09:04:59.903Z,50.94
2019-02-24T09:05:59.864Z,50.84
2019-02-24T09:06:59.872Z,51.56
2019-02-24T09:07:59.845Z,50.32
2019-02-24T09:08:59.833Z,48.23
2019-02-24T09:09:59.859Z,49.37
2019-02-24T09:10:59.829Z,48.85
2019-02-24T09:11:59.801Z,49.47
2019-02-24T09:12:59.791Z,49.68
2019-02-24T09:13:59.780Z,48.95
2019-02-24T09:14:59.805Z,48.54
2019-02-24T09:15:59.762Z,48.44
2019-02-24T09:16:59.748Z,48.23
2019-02-24T09:17:59.747Z,48.75
2019-02-24T09:18:59.723Z,48.44
2019-02-24T09:19:59.750Z,49.05
2019-02-24T09:20:59.708Z,49.47
2019-02-24T09:21:59.699Z,48.95
2019-02-24T09:22:59.687Z,49.99
2019-02-24T09:23:59.674Z,50.48
2019-02-24T09:24:59.662Z,49.47
2019-02-24T09:25:59.681Z,49.96
2019-02-24T09:26:59.647Z,50.27
2019-02-24T09:27:59.625Z,50.17
2019-02-24T09:28:59.626Z,50.89
2019-02-24T09:29:59.606Z,49.65
2019-02-24T09:31:01.058Z,49.24
2019-02-24T09:31:59.617Z,49.34
2019-02-24T09:32:59.603Z,47.36
2019-02-24T09:33:59.574Z,48.91
2019-02-24T09:34:59.564Z,49.14
2019-02-24T09:35:59.571Z,49.01
2019-02-24T09:36:59.532Z,49.22
2019-02-24T09:37:59.529Z,48.70
2019-02-24T09:38:59.538Z,49.53
2019-02-24T09:40:00.787Z,49.43
2019-02-24T09:41:01.216Z,47.26
2019-02-24T09:41:59.478Z,47.67
2019-02-24T09:42:59.489Z,47.46
2019-02-24T09:43:59.453Z,47.44
2019-02-24T09:44:59.459Z,47.24
2019-02-24T09:45:59.678Z,48.06
2019-02-24T09:46:59.426Z,48.06
2019-02-24T09:47:59.420Z,48.37
2019-02-24T09:48:59.416Z,46.62
2019-02-24T09:49:59.390Z,46.82
2019-02-24T09:50:59.377Z,45.87
2019-02-24T09:51:59.401Z,45.38
2019-02-24T09:52:59.354Z,45.05
2019-02-24T09:53:59.365Z,45.36
2019-02-24T09:54:59.334Z,45.25
2019-02-24T09:55:59.324Z,45.05
2019-02-24T09:56:59.350Z,44.84
2019-02-24T09:57:59.303Z,45.15
2019-02-24T09:58:59.287Z,45.56
2019-02-24T09:59:59.284Z,45.77
2019-02-24T10:00:59.263Z,45.56
2019-02-24T10:01:59.285Z,45.75
2019-02-24T10:02:59.238Z,45.44
2019-02-24T10:03:59.228Z,44.20
2019-02-24T10:04:59.224Z,44.51
2019-02-24T10:05:59.210Z,44.62
2019-02-24T10:06:59.219Z,44.62
2019-02-24T10:07:59.205Z,43.15
2019-02-24T10:08:59.176Z,43.17
2019-02-24T10:09:59.220Z,43.15
2019-02-24T10:10:59.155Z,44.57
2019-02-24T10:11:59.169Z,44.39
2019-02-24T10:12:59.131Z,44.26
2019-02-24T10:13:59.120Z,42.22
2019-02-24T10:14:59.110Z,42.94
2019-02-24T10:15:59.128Z,43.75
2019-02-24T10:16:59.094Z,43.44
2019-02-24T10:17:59.361Z,42.82
2019-02-24T10:18:59.061Z,43.13
2019-02-24T10:19:59.064Z,42.21
2019-02-24T10:20:59.043Z,43.34
2019-02-24T10:21:59.040Z,42.91
2019-02-24T10:22:59.020Z,43.54
2019-02-24T10:23:59.234Z,42.93
2019-02-24T10:24:58.995Z,42.29
2019-02-24T10:25:58.986Z,40.75
2019-02-24T10:26:58.971Z,41.05
2019-02-24T10:27:58.982Z,40.64
2019-02-24T10:28:58.947Z,41.98
2019-02-24T10:29:58.962Z,41.96
2019-02-24T10:30:58.938Z,41.98
2019-02-24T10:31:58.917Z,42.47
2019-02-24T10:32:58.908Z,41.65
2019-02-24T10:33:58.915Z,40.62
2019-02-24T10:34:58.891Z,41.45
2019-02-24T10:35:58.879Z,38.15
2019-02-24T10:36:58.863Z,38.45
2019-02-24T10:37:58.890Z,38.04
2019-02-24T10:38:58.841Z,38.96
2019-02-24T10:39:58.832Z,38.76
2019-02-24T10:40:58.820Z,38.34
2019-02-24T10:41:58.808Z,37.83
2019-02-24T10:42:58.803Z,37.81
2019-02-24T10:43:58.813Z,39.17
2019-02-24T10:44:58.776Z,38.12
2019-02-24T10:45:58.777Z,37.51
2019-02-24T10:46:58.761Z,37.60
2019-02-24T10:47:58.738Z,36.68
2019-02-24T10:49:03.410Z,36.99
2019-02-24T10:49:59.739Z,37.30
2019-02-24T10:50:58.712Z,36.98
2019-02-24T10:51:58.699Z,37.79
2019-02-24T10:52:58.694Z,36.66
2019-02-24T10:53:58.903Z,36.25
2019-02-24T10:54:58.671Z,35.14
2019-02-24T10:55:58.660Z,36.15
2019-02-24T10:56:58.652Z,35.74
2019-02-24T10:57:58.648Z,35.02
2019-02-24T10:58:58.629Z,35.72
2019-02-24T10:59:58.649Z,37.57
2019-02-24T11:00:58.604Z,36.34
2019-02-24T11:01:58.597Z,35.83
2019-02-24T11:02:58.605Z,35.83
2019-02-24T11:03:58.570Z,35.83
2019-02-24T11:04:58.556Z,36.34
2019-02-24T11:05:58.544Z,35.81
2019-02-24T11:06:58.560Z,35.71
2019-02-24T11:07:58.573Z,35.19
2019-02-24T11:08:58.519Z,35.09
2019-02-24T11:09:58.504Z,34.17
2019-02-24T11:10:58.490Z,33.86
2019-02-24T11:11:58.487Z,33.76
2019-02-24T11:12:58.468Z,33.86
2019-02-24T11:13:58.689Z,34.06
2019-02-24T11:14:58.450Z,34.38
2019-02-24T11:15:58.436Z,34.99
2019-02-24T11:16:58.422Z,35.08
2019-02-24T11:17:58.419Z,34.56
2019-02-24T11:18:58.416Z,35.79
2019-02-24T11:19:58.455Z,35.69
2019-02-24T11:20:58.381Z,36.00
2019-02-24T11:21:58.372Z,36.10
2019-02-24T11:22:58.377Z,36.92
2019-02-24T11:23:58.346Z,36.41
2019-02-24T11:24:58.341Z,35.59
2019-02-24T11:25:58.357Z,35.69
2019-02-24T11:26:58.314Z,35.89
2019-02-24T11:27:58.307Z,35.28
2019-02-24T11:28:58.296Z,34.77
2019-02-24T11:29:58.296Z,36.21
2019-02-24T11:30:58.315Z,34.24
2019-02-24T11:31:58.261Z,35.47
2019-02-24T11:32:58.254Z,34.75
2019-02-24T11:33:58.249Z,34.95
2019-02-24T11:34:58.229Z,34.95
2019-02-24T11:35:58.218Z,33.42
2019-02-24T11:36:58.245Z,34.34
2019-02-24T11:37:58.198Z,34.43
2019-02-24T11:38:58.187Z,33.51
2019-02-24T11:39:58.175Z,33.73
2019-02-24T11:40:58.209Z,33.81
2019-02-24T11:41:58.151Z,33.01
2019-02-24T11:42:58.148Z,32.07
2019-02-24T11:43:58.129Z,31.46
2019-02-24T11:44:58.122Z,32.16
2019-02-24T11:45:58.110Z,32.36
2019-02-24T11:46:58.120Z,32.55
2019-02-24T11:47:58.083Z,32.65
2019-02-24T11:48:58.083Z,31.73
2019-02-24T11:49:58.091Z,32.24
2019-02-24T11:50:58.052Z,31.94
2019-02-24T11:52:03.855Z,32.24
2019-02-24T11:52:59.027Z,31.84
2019-02-24T11:53:58.051Z,31.02
2019-02-24T11:54:58.031Z,31.22
2019-02-24T11:55:58.000Z,31.92
2019-02-24T11:56:58.012Z,31.72
2019-02-24T11:57:57.981Z,31.92
2019-02-24T11:58:57.986Z,31.62
2019-02-24T11:59:57.952Z,31.00
2019-02-24T12:00:57.946Z,31.00
2019-02-24T12:01:57.970Z,32.43
2019-02-24T12:02:57.925Z,33.05
2019-02-24T12:03:57.909Z,33.05
2019-02-24T12:04:57.904Z,33.44
2019-02-24T12:05:57.891Z,31.91
2019-02-24T12:06:57.902Z,28.64
2019-02-24T12:07:57.867Z,27.82
2019-02-24T12:09:05.061Z,28.23
2019-02-24T12:09:58.842Z,29.25
2019-02-24T12:10:57.835Z,28.02
2019-02-24T12:11:57.856Z,28.33
2019-02-24T12:12:57.884Z,27.92
2019-02-24T12:13:57.818Z,28.94
2019-02-24T12:14:57.795Z,28.63
2019-02-24T12:15:57.816Z,28.63
2019-02-24T12:16:57.763Z,29.33
2019-02-24T12:17:57.798Z,29.54
2019-02-24T12:18:57.749Z,29.53
2019-02-24T12:19:57.790Z,30.96
2019-02-24T12:20:57.732Z,28.92
2019-02-24T12:21:57.708Z,27.48
2019-02-24T12:22:57.740Z,28.11
2019-02-24T12:23:57.687Z,27.18
2019-02-24T12:24:57.677Z,26.27
2019-02-24T12:25:57.672Z,25.34
2019-02-24T12:26:57.657Z,25.34
2019-02-24T12:27:57.648Z,26.36
2019-02-24T12:28:57.651Z,28.29
2019-02-24T12:29:57.621Z,26.65
2019-02-24T12:30:57.618Z,27.48
2019-02-24T12:31:57.608Z,26.35
2019-02-24T12:32:57.586Z,25.84
2019-02-24T12:33:57.610Z,26.65
2019-02-24T12:34:57.567Z,25.74
2019-02-24T12:35:57.556Z,26.76
2019-02-24T12:36:57.549Z,26.35
2019-02-24T12:37:57.545Z,27.47
2019-02-24T12:38:57.550Z,27.68
2019-02-24T12:39:57.524Z,27.68
2019-02-24T12:40:57.496Z,25.33
2019-02-24T12:41:57.489Z,24.00
2019-02-24T12:42:57.480Z,22.88
2019-02-24T12:43:57.494Z,22.88
2019-02-24T12:44:57.454Z,23.69
2019-02-24T12:45:57.442Z,23.08
2019-02-24T12:46:57.452Z,23.80
2019-02-24T12:47:57.455Z,22.16
2019-02-24T12:48:57.413Z,21.23
2019-02-24T12:50:03.297Z,20.92
2019-02-24T12:50:58.690Z,19.29
2019-02-24T12:51:57.376Z,21.03
2019-02-24T12:52:57.375Z,20.83
2019-02-24T12:53:57.361Z,21.33